Kezdőlap
METAR-TAF:

METAR-TAF

Repülőterek :

Nagyvárad, Románia

földrajzi szélesség: 47-03N, földrajzi hosszúság: 021-56E, magasság: 135 m

Jelenlegi meteorológiai megfigyelések

A jelentés 40 perccel ezelõtt készült, 06:00 UTC
Keleti szél 5 kt, kelet-északkeleti és kelet-délkeleti között változik
Hőmérséklet 20°C
Páratartalom 73%
Légköri nyomás 1013 hPa
Látótávolság 10 km, vagy több
felhőtlen 1500 m magasságban, és nincs gomolyfelhõ

METAR: LROD 210600Z 09005KT 060V120 CAVOK 20/15 Q1013

Idő: 09:40 (06:40 UTC)

Előrejelzés

A jelentés 1 órával és 40 perccel ezelõtt készült, 05:00 UTC
Az előrejelzés 21-én 06 óra UTC és 21-én 15 óra UTC között érvényes
Keleti szél 6 kt
Látótávolság 10 km, vagy több
felhőtlen 1500 m magasságban, és nincs gomolyfelhõ

TAF: LROD 210500Z 2106/2115 08006KT CAVOK

Meteorológiai megfigyelések és előrejelzések több, mint 4000 repülőtéren (METAR és TAF jelentéseket).

A térképen piros és sárga pontok jelzik az elérhető meteorológiai állomásokat.

Mozgassa az egeret a pont fölött, hogy megjelenjen az állomás neve.

Azután kattintson az időjárási megfigyelések és előrejelzések megtekintéséhez.

A térkép megváltoztatása: kattintson a fekete keresztel jelölt zöld gombra ráközelítéshez, a vonallal jelölt zöld gombra távolításhoz, vagy a zöld nyilakra a szomszédos térképek eléréséhez.


METAR-TAF: